VOE7LJ LIMJ-LFPO
Flight info
| Callsign | VOE7LJ |
|---|---|
| Flight time | 1h 12m |
| Altitude | 38000 |
| Route | LAGEN DCT NEDED DCT TOP DCT AOSTA DCT ORSUD DCT MOLUS DCT UNKIR DCT DJL |
| Aircraft | A319/M-SDFGIJ1RWY/LB1 |
Departure
| Time | 2026-05-06 11:46 |
|---|---|
| Airport | Genoa Cristoforo Colombo Airport (LIMJ) |
Arrival
| Time | 2026-05-06 12:58 |
|---|---|
| Airport | Paris-Orly Airport (LFPO) |
| Time | Latitude | Longitude | Altitude | Speed | Heading |
|---|---|---|---|---|---|
| 2026-05-06 11:26 | 44.41397 | 8.85099 | 20 ft | 0 kts | 15° |
| 2026-05-06 11:38 | 44.41388 | 8.85096 | 20 ft | 4 kts | 14° |
| 2026-05-06 11:39 | 44.41362 | 8.85086 | 22 ft | 4 kts | 17° |
| 2026-05-06 11:39 | 44.41338 | 8.85072 | 22 ft | 4 kts | 54° |
| 2026-05-06 11:39 | 44.41334 | 8.85059 | 21 ft | 0 kts | 105° |
| 2026-05-06 11:41 | 44.41330 | 8.85076 | 21 ft | 3 kts | 105° |
| 2026-05-06 11:41 | 44.41321 | 8.85125 | 20 ft | 7 kts | 105° |
| 2026-05-06 11:41 | 44.41305 | 8.85204 | 20 ft | 10 kts | 106° |
| 2026-05-06 11:41 | 44.41260 | 8.85274 | 20 ft | 10 kts | 152° |
| 2026-05-06 11:42 | 44.41188 | 8.85267 | 20 ft | 11 kts | 196° |
| 2026-05-06 11:42 | 44.41110 | 8.85236 | 20 ft | 12 kts | 196° |
| 2026-05-06 11:42 | 44.41102 | 8.85232 | 20 ft | 0 kts | 196° |
| 2026-05-06 11:43 | 44.41099 | 8.85231 | 20 ft | 2 kts | 196° |
| 2026-05-06 11:43 | 44.41068 | 8.85207 | 20 ft | 9 kts | 220° |
| 2026-05-06 11:44 | 44.40964 | 8.85339 | 20 ft | 19 kts | 103° |
| 2026-05-06 11:44 | 44.40932 | 8.85530 | 20 ft | 22 kts | 105° |
| 2026-05-06 11:44 | 44.40891 | 8.85740 | 22 ft | 22 kts | 105° |
| 2026-05-06 11:44 | 44.40871 | 8.85952 | 23 ft | 23 kts | 76° |
| 2026-05-06 11:45 | 44.40875 | 8.86068 | 24 ft | 10 kts | 139° |
| 2026-05-06 11:45 | 44.40842 | 8.86015 | 22 ft | 10 kts | 263° |
| 2026-05-06 11:45 | 44.40864 | 8.85862 | 23 ft | 38 kts | 284° |
| 2026-05-06 11:45 | 44.41000 | 8.85122 | 17 ft | 116 kts | 286° |
| 2026-05-06 11:46 | 44.41269 | 8.83760 | 71 ft | 168 kts | 287° |
| 2026-05-06 11:46 | 44.41624 | 8.82217 | 769 ft | 165 kts | 282° |
| 2026-05-06 11:46 | 44.41685 | 8.80648 | 1392 ft | 162 kts | 252° |
| 2026-05-06 11:46 | 44.41158 | 8.79274 | 1953 ft | 167 kts | 224° |
| 2026-05-06 11:47 | 44.40127 | 8.78444 | 2428 ft | 178 kts | 193° |
| 2026-05-06 11:47 | 44.38888 | 8.78552 | 3090 ft | 184 kts | 162° |
| 2026-05-06 11:47 | 44.37732 | 8.79356 | 3813 ft | 186 kts | 155° |
| 2026-05-06 11:47 | 44.36575 | 8.80194 | 4531 ft | 187 kts | 156° |
| 2026-05-06 11:48 | 44.35414 | 8.81035 | 5195 ft | 189 kts | 157° |
| 2026-05-06 11:48 | 44.34177 | 8.81654 | 5806 ft | 190 kts | 175° |
| 2026-05-06 11:48 | 44.32860 | 8.81646 | 6456 ft | 190 kts | 186° |
| 2026-05-06 11:48 | 44.31535 | 8.81552 | 7093 ft | 192 kts | 186° |
| 2026-05-06 11:49 | 44.30197 | 8.81463 | 7715 ft | 194 kts | 186° |
| 2026-05-06 11:49 | 44.28837 | 8.81376 | 8343 ft | 197 kts | 186° |
| 2026-05-06 11:49 | 44.27466 | 8.81287 | 8989 ft | 198 kts | 186° |
| 2026-05-06 11:49 | 44.26079 | 8.81194 | 9645 ft | 200 kts | 186° |
| 2026-05-06 11:50 | 44.24681 | 8.81100 | 10261 ft | 202 kts | 187° |
| 2026-05-06 11:50 | 44.23748 | 8.81037 | 10658 ft | 203 kts | 187° |
| 2026-05-06 11:50 | 44.22329 | 8.80942 | 11260 ft | 205 kts | 187° |
| 2026-05-06 11:50 | 44.20893 | 8.80848 | 11846 ft | 208 kts | 187° |
| 2026-05-06 11:51 | 44.19441 | 8.80753 | 12447 ft | 210 kts | 187° |
| 2026-05-06 11:51 | 44.17977 | 8.80654 | 13053 ft | 212 kts | 187° |
| 2026-05-06 11:51 | 44.16494 | 8.80553 | 13662 ft | 214 kts | 187° |
| 2026-05-06 11:51 | 44.15034 | 8.80226 | 14167 ft | 213 kts | 207° |
| 2026-05-06 11:52 | 44.13934 | 8.78905 | 14686 ft | 213 kts | 237° |
| 2026-05-06 11:52 | 44.13541 | 8.76835 | 14891 ft | 238 kts | 266° |
| 2026-05-06 11:52 | 44.13621 | 8.74440 | 15113 ft | 258 kts | 269° |
| 2026-05-06 11:52 | 44.13718 | 8.71904 | 15627 ft | 265 kts | 269° |
| 2026-05-06 11:53 | 44.13970 | 8.69342 | 16276 ft | 273 kts | 281° |
| 2026-05-06 11:53 | 44.14827 | 8.66937 | 16940 ft | 285 kts | 300° |
| 2026-05-06 11:53 | 44.16304 | 8.64964 | 17429 ft | 311 kts | 319° |
| 2026-05-06 11:53 | 44.18326 | 8.63525 | 17590 ft | 340 kts | 328° |
| 2026-05-06 11:54 | 44.20534 | 8.62088 | 17730 ft | 362 kts | 328° |
| 2026-05-06 11:54 | 44.22881 | 8.60572 | 17873 ft | 382 kts | 329° |
| 2026-05-06 11:54 | 44.25351 | 8.58977 | 18056 ft | 399 kts | 329° |
| 2026-05-06 11:54 | 44.27897 | 8.57332 | 18496 ft | 407 kts | 329° |
| 2026-05-06 11:55 | 44.30481 | 8.55661 | 19034 ft | 411 kts | 329° |
| 2026-05-06 11:55 | 44.33088 | 8.53964 | 19569 ft | 415 kts | 328° |
| 2026-05-06 11:55 | 44.35719 | 8.52244 | 20100 ft | 419 kts | 328° |
| 2026-05-06 11:55 | 44.38354 | 8.50462 | 20622 ft | 420 kts | 324° |
| 2026-05-06 11:56 | 44.40746 | 8.48247 | 21123 ft | 416 kts | 314° |
| 2026-05-06 11:56 | 44.42962 | 8.45633 | 21534 ft | 419 kts | 312° |
| 2026-05-06 11:56 | 44.45211 | 8.42945 | 22076 ft | 421 kts | 312° |
| 2026-05-06 11:56 | 44.47421 | 8.40306 | 22558 ft | 424 kts | 312° |
| 2026-05-06 11:57 | 44.49675 | 8.37617 | 23013 ft | 428 kts | 311° |
| 2026-05-06 11:57 | 44.51949 | 8.34908 | 23468 ft | 431 kts | 311° |
| 2026-05-06 11:57 | 44.54244 | 8.32177 | 23874 ft | 434 kts | 311° |
| 2026-05-06 11:57 | 44.56547 | 8.29436 | 24285 ft | 436 kts | 311° |
| 2026-05-06 11:58 | 44.58867 | 8.26673 | 24636 ft | 439 kts | 311° |
| 2026-05-06 11:58 | 44.61201 | 8.23888 | 24992 ft | 442 kts | 311° |
| 2026-05-06 11:58 | 44.63545 | 8.21079 | 25360 ft | 444 kts | 311° |
| 2026-05-06 11:58 | 44.65904 | 8.18247 | 25721 ft | 447 kts | 311° |
| 2026-05-06 11:59 | 44.68272 | 8.15400 | 26086 ft | 450 kts | 311° |
| 2026-05-06 11:59 | 44.70663 | 8.12527 | 26445 ft | 453 kts | 311° |
| 2026-05-06 11:59 | 44.73068 | 8.09638 | 26787 ft | 456 kts | 311° |
| 2026-05-06 11:59 | 44.75488 | 8.06733 | 27125 ft | 459 kts | 311° |
| 2026-05-06 12:00 | 44.77918 | 8.03812 | 27462 ft | 461 kts | 311° |
| 2026-05-06 12:00 | 44.80364 | 8.00867 | 27793 ft | 464 kts | 311° |
| 2026-05-06 12:00 | 44.82828 | 7.97899 | 28120 ft | 467 kts | 311° |
| 2026-05-06 12:00 | 44.85300 | 7.94922 | 28439 ft | 469 kts | 311° |
| 2026-05-06 12:01 | 44.87788 | 7.91923 | 28751 ft | 472 kts | 311° |
| 2026-05-06 12:01 | 44.90297 | 7.88913 | 29108 ft | 475 kts | 312° |
| 2026-05-06 12:01 | 44.92706 | 7.86504 | 29496 ft | 484 kts | 320° |
| 2026-05-06 12:01 | 44.95731 | 7.84296 | 29933 ft | 494 kts | 329° |
| 2026-05-06 12:02 | 44.98920 | 7.82442 | 30298 ft | 495 kts | 330° |
| 2026-05-06 12:02 | 45.02106 | 7.80596 | 30694 ft | 495 kts | 330° |
| 2026-05-06 12:02 | 45.05286 | 7.78747 | 31086 ft | 494 kts | 330° |
| 2026-05-06 12:02 | 45.08459 | 7.76897 | 31516 ft | 493 kts | 330° |
| 2026-05-06 12:03 | 45.11623 | 7.75045 | 31927 ft | 492 kts | 330° |
| 2026-05-06 12:03 | 45.14784 | 7.73187 | 32351 ft | 491 kts | 330° |
| 2026-05-06 12:03 | 45.17933 | 7.71335 | 32755 ft | 490 kts | 330° |
| 2026-05-06 12:03 | 45.21082 | 7.69483 | 33169 ft | 489 kts | 330° |
| 2026-05-06 12:04 | 45.24219 | 7.67639 | 33583 ft | 488 kts | 330° |
| 2026-05-06 12:04 | 45.27357 | 7.65789 | 33976 ft | 487 kts | 330° |
| 2026-05-06 12:04 | 45.30482 | 7.63937 | 34330 ft | 486 kts | 330° |
| 2026-05-06 12:04 | 45.33599 | 7.62086 | 34695 ft | 485 kts | 330° |
| 2026-05-06 12:05 | 45.36706 | 7.60238 | 35056 ft | 484 kts | 330° |
| 2026-05-06 12:05 | 45.39807 | 7.58398 | 35431 ft | 482 kts | 331° |
| 2026-05-06 12:05 | 45.42900 | 7.56567 | 35825 ft | 480 kts | 331° |
| 2026-05-06 12:05 | 45.45982 | 7.54739 | 36180 ft | 479 kts | 331° |
| 2026-05-06 12:06 | 45.49047 | 7.52917 | 36502 ft | 477 kts | 331° |
| 2026-05-06 12:06 | 45.52109 | 7.51092 | 36850 ft | 476 kts | 332° |
| 2026-05-06 12:06 | 45.55160 | 7.49269 | 37187 ft | 474 kts | 332° |
| 2026-05-06 12:06 | 45.58201 | 7.47451 | 37467 ft | 473 kts | 332° |
| 2026-05-06 12:07 | 45.61234 | 7.45642 | 37786 ft | 472 kts | 332° |
| 2026-05-06 12:07 | 45.64264 | 7.43832 | 37888 ft | 472 kts | 332° |
| 2026-05-06 12:07 | 45.70303 | 7.40209 | 37886 ft | 469 kts | 332° |
| 2026-05-06 12:08 | 45.76322 | 7.36584 | 37897 ft | 470 kts | 332° |
| 2026-05-06 12:08 | 45.82029 | 7.32195 | 37891 ft | 462 kts | 319° |
| 2026-05-06 12:09 | 45.87266 | 7.26856 | 37885 ft | 462 kts | 319° |
| 2026-05-06 12:09 | 45.92469 | 7.21539 | 37883 ft | 462 kts | 320° |
| 2026-05-06 12:10 | 45.97713 | 7.16193 | 37884 ft | 462 kts | 319° |
| 2026-05-06 12:10 | 46.02959 | 7.10833 | 37878 ft | 462 kts | 319° |
| 2026-05-06 12:11 | 46.08204 | 7.05445 | 37899 ft | 463 kts | 320° |
| 2026-05-06 12:11 | 46.13448 | 7.00051 | 37903 ft | 463 kts | 319° |
| 2026-05-06 12:12 | 46.18686 | 6.94656 | 37888 ft | 463 kts | 320° |
| 2026-05-06 12:12 | 46.23934 | 6.89231 | 37896 ft | 464 kts | 320° |
| 2026-05-06 12:13 | 46.29187 | 6.83785 | 37897 ft | 465 kts | 320° |
| 2026-05-06 12:13 | 46.34442 | 6.78329 | 37897 ft | 465 kts | 320° |
| 2026-05-06 12:14 | 46.39699 | 6.72852 | 37901 ft | 466 kts | 320° |
| 2026-05-06 12:14 | 46.44499 | 6.66701 | 37904 ft | 457 kts | 305° |
| 2026-05-06 12:15 | 46.47919 | 6.59057 | 37894 ft | 450 kts | 295° |
| 2026-05-06 12:15 | 46.51036 | 6.51170 | 37900 ft | 451 kts | 295° |
| 2026-05-06 12:16 | 46.54154 | 6.43259 | 37899 ft | 452 kts | 295° |
| 2026-05-06 12:16 | 46.57270 | 6.35325 | 37904 ft | 452 kts | 295° |
| 2026-05-06 12:17 | 46.60382 | 6.27378 | 37910 ft | 453 kts | 295° |
| 2026-05-06 12:17 | 46.63497 | 6.19415 | 37915 ft | 453 kts | 295° |
| 2026-05-06 12:18 | 46.66609 | 6.11429 | 37915 ft | 453 kts | 295° |
| 2026-05-06 12:18 | 46.69713 | 6.03436 | 37917 ft | 454 kts | 295° |
| 2026-05-06 12:19 | 46.72815 | 5.95424 | 37920 ft | 454 kts | 295° |
| 2026-05-06 12:19 | 46.75914 | 5.87401 | 37913 ft | 454 kts | 295° |
| 2026-05-06 12:20 | 46.79003 | 5.79362 | 37918 ft | 455 kts | 295° |
| 2026-05-06 12:20 | 46.82478 | 5.71632 | 37904 ft | 460 kts | 308° |
| 2026-05-06 12:21 | 46.87114 | 5.65119 | 37900 ft | 463 kts | 313° |
| 2026-05-06 12:21 | 46.91817 | 5.58666 | 37894 ft | 463 kts | 313° |
| 2026-05-06 12:22 | 46.96505 | 5.52205 | 37890 ft | 463 kts | 313° |
| 2026-05-06 12:22 | 46.98820 | 5.49008 | 37767 ft | 462 kts | 313° |
| 2026-05-06 12:22 | 47.01176 | 5.45754 | 37357 ft | 457 kts | 313° |
| 2026-05-06 12:23 | 47.03483 | 5.42571 | 36915 ft | 454 kts | 313° |
| 2026-05-06 12:23 | 47.05775 | 5.39403 | 36457 ft | 453 kts | 313° |
| 2026-05-06 12:23 | 47.08064 | 5.36237 | 36011 ft | 452 kts | 313° |
| 2026-05-06 12:23 | 47.10354 | 5.33064 | 35573 ft | 452 kts | 313° |
| 2026-05-06 12:24 | 47.12608 | 5.29935 | 35146 ft | 452 kts | 314° |
| 2026-05-06 12:24 | 47.14892 | 5.26764 | 34671 ft | 452 kts | 314° |
| 2026-05-06 12:24 | 47.17174 | 5.23589 | 34186 ft | 452 kts | 314° |
| 2026-05-06 12:24 | 47.19462 | 5.20402 | 33699 ft | 453 kts | 314° |
| 2026-05-06 12:25 | 47.21751 | 5.17207 | 33149 ft | 454 kts | 314° |
| 2026-05-06 12:25 | 47.24044 | 5.13995 | 32614 ft | 456 kts | 315° |
| 2026-05-06 12:25 | 47.26342 | 5.10769 | 32089 ft | 458 kts | 315° |
| 2026-05-06 12:25 | 47.28636 | 5.07489 | 31568 ft | 460 kts | 314° |
| 2026-05-06 12:26 | 47.30886 | 5.04119 | 31056 ft | 463 kts | 314° |
| 2026-05-06 12:26 | 47.33111 | 5.00677 | 30562 ft | 465 kts | 313° |
| 2026-05-06 12:26 | 47.35327 | 4.97195 | 30066 ft | 467 kts | 313° |
| 2026-05-06 12:26 | 47.37554 | 4.93686 | 29509 ft | 469 kts | 313° |
| 2026-05-06 12:27 | 47.39791 | 4.90183 | 28933 ft | 469 kts | 314° |
| 2026-05-06 12:27 | 47.42038 | 4.86687 | 28369 ft | 469 kts | 314° |
| 2026-05-06 12:27 | 47.44276 | 4.83219 | 27818 ft | 465 kts | 314° |
| 2026-05-06 12:27 | 47.46496 | 4.79779 | 27278 ft | 460 kts | 314° |
| 2026-05-06 12:28 | 47.48694 | 4.76377 | 26753 ft | 455 kts | 314° |
| 2026-05-06 12:28 | 47.50874 | 4.72998 | 26347 ft | 452 kts | 314° |
| 2026-05-06 12:28 | 47.53034 | 4.69648 | 25971 ft | 449 kts | 314° |
| 2026-05-06 12:28 | 47.55180 | 4.66311 | 25671 ft | 446 kts | 314° |
| 2026-05-06 12:29 | 47.57314 | 4.62981 | 25421 ft | 445 kts | 314° |
| 2026-05-06 12:29 | 47.59437 | 4.59669 | 25168 ft | 443 kts | 314° |
| 2026-05-06 12:29 | 47.61553 | 4.56367 | 24922 ft | 440 kts | 314° |
| 2026-05-06 12:29 | 47.63656 | 4.53078 | 24678 ft | 438 kts | 314° |
| 2026-05-06 12:30 | 47.65745 | 4.49800 | 24436 ft | 436 kts | 313° |
| 2026-05-06 12:30 | 47.67824 | 4.46530 | 24206 ft | 434 kts | 314° |
| 2026-05-06 12:30 | 47.69891 | 4.43280 | 24043 ft | 433 kts | 314° |
| 2026-05-06 12:30 | 47.71955 | 4.40032 | 23758 ft | 430 kts | 314° |
| 2026-05-06 12:31 | 47.73999 | 4.36811 | 23470 ft | 427 kts | 314° |
| 2026-05-06 12:31 | 47.76030 | 4.33606 | 23160 ft | 425 kts | 313° |
| 2026-05-06 12:31 | 47.78052 | 4.30412 | 22887 ft | 423 kts | 314° |
| 2026-05-06 12:31 | 47.80066 | 4.27231 | 22611 ft | 422 kts | 313° |
| 2026-05-06 12:32 | 47.82072 | 4.24054 | 22321 ft | 421 kts | 313° |
| 2026-05-06 12:32 | 47.84077 | 4.20878 | 22050 ft | 420 kts | 313° |
| 2026-05-06 12:32 | 47.86027 | 4.17660 | 21767 ft | 418 kts | 308° |
| 2026-05-06 12:32 | 47.87632 | 4.14059 | 21501 ft | 417 kts | 298° |
| 2026-05-06 12:33 | 47.88801 | 4.10122 | 21218 ft | 415 kts | 288° |
| 2026-05-06 12:33 | 47.89526 | 4.05976 | 20944 ft | 413 kts | 281° |
| 2026-05-06 12:33 | 47.90130 | 4.01794 | 20666 ft | 412 kts | 282° |
| 2026-05-06 12:33 | 47.90727 | 3.97689 | 20405 ft | 410 kts | 282° |
| 2026-05-06 12:34 | 47.91331 | 3.93549 | 20130 ft | 408 kts | 282° |
| 2026-05-06 12:34 | 47.91931 | 3.89439 | 19863 ft | 405 kts | 282° |
| 2026-05-06 12:34 | 47.92527 | 3.85341 | 19591 ft | 403 kts | 282° |
| 2026-05-06 12:34 | 47.93118 | 3.81263 | 19319 ft | 401 kts | 282° |
| 2026-05-06 12:35 | 47.93703 | 3.77210 | 19058 ft | 399 kts | 282° |
| 2026-05-06 12:35 | 47.94280 | 3.73185 | 18797 ft | 397 kts | 282° |
| 2026-05-06 12:35 | 47.94851 | 3.69175 | 18535 ft | 394 kts | 282° |
| 2026-05-06 12:35 | 47.95419 | 3.65186 | 18276 ft | 392 kts | 282° |
| 2026-05-06 12:36 | 47.96002 | 3.61260 | 18051 ft | 381 kts | 285° |
| 2026-05-06 12:36 | 47.96924 | 3.57636 | 17849 ft | 369 kts | 297° |
| 2026-05-06 12:36 | 47.98260 | 3.54421 | 17410 ft | 363 kts | 308° |
| 2026-05-06 12:36 | 47.99954 | 3.51652 | 16881 ft | 360 kts | 315° |
| 2026-05-06 12:37 | 48.01703 | 3.49017 | 16410 ft | 356 kts | 315° |
| 2026-05-06 12:37 | 48.02853 | 3.47272 | 16095 ft | 354 kts | 314° |
| 2026-05-06 12:37 | 48.04569 | 3.44654 | 15568 ft | 352 kts | 314° |
| 2026-05-06 12:37 | 48.06263 | 3.42057 | 15204 ft | 346 kts | 314° |
| 2026-05-06 12:38 | 48.07936 | 3.39488 | 14742 ft | 344 kts | 314° |
| 2026-05-06 12:38 | 48.09597 | 3.36942 | 14319 ft | 340 kts | 314° |
| 2026-05-06 12:38 | 48.11243 | 3.34418 | 13868 ft | 337 kts | 314° |
| 2026-05-06 12:38 | 48.12875 | 3.31915 | 13399 ft | 334 kts | 314° |
| 2026-05-06 12:39 | 48.14489 | 3.29436 | 12909 ft | 331 kts | 314° |
| 2026-05-06 12:39 | 48.16072 | 3.27001 | 12685 ft | 320 kts | 314° |
| 2026-05-06 12:39 | 48.17596 | 3.24656 | 12558 ft | 308 kts | 314° |
| 2026-05-06 12:39 | 48.19066 | 3.22394 | 12410 ft | 298 kts | 314° |
| 2026-05-06 12:40 | 48.20499 | 3.20188 | 12114 ft | 293 kts | 313° |
| 2026-05-06 12:40 | 48.21917 | 3.18006 | 11758 ft | 291 kts | 313° |
| 2026-05-06 12:40 | 48.23326 | 3.15839 | 11397 ft | 289 kts | 313° |
| 2026-05-06 12:40 | 48.24721 | 3.13688 | 11044 ft | 287 kts | 313° |
| 2026-05-06 12:41 | 48.26109 | 3.11546 | 10696 ft | 285 kts | 313° |
| 2026-05-06 12:41 | 48.27488 | 3.09417 | 10360 ft | 283 kts | 313° |
| 2026-05-06 12:41 | 48.28854 | 3.07306 | 10061 ft | 281 kts | 313° |
| 2026-05-06 12:41 | 48.30199 | 3.05224 | 9905 ft | 277 kts | 313° |
| 2026-05-06 12:42 | 48.31539 | 3.03147 | 9912 ft | 276 kts | 313° |
| 2026-05-06 12:42 | 48.32879 | 3.01072 | 9916 ft | 276 kts | 313° |
| 2026-05-06 12:42 | 48.34220 | 2.99001 | 9919 ft | 276 kts | 313° |
| 2026-05-06 12:42 | 48.35561 | 2.96928 | 9917 ft | 277 kts | 313° |
| 2026-05-06 12:43 | 48.36903 | 2.94850 | 9921 ft | 277 kts | 313° |
| 2026-05-06 12:43 | 48.38244 | 2.92771 | 9917 ft | 277 kts | 313° |
| 2026-05-06 12:43 | 48.39587 | 2.90685 | 9919 ft | 277 kts | 313° |
| 2026-05-06 12:43 | 48.40928 | 2.88600 | 9922 ft | 277 kts | 313° |
| 2026-05-06 12:44 | 48.42271 | 2.86511 | 9920 ft | 277 kts | 313° |
| 2026-05-06 12:44 | 48.43610 | 2.84422 | 9917 ft | 277 kts | 312° |
| 2026-05-06 12:44 | 48.44809 | 2.82157 | 9831 ft | 277 kts | 299° |
| 2026-05-06 12:44 | 48.45521 | 2.79490 | 9644 ft | 275 kts | 283° |
| 2026-05-06 12:45 | 48.45719 | 2.76635 | 9452 ft | 275 kts | 272° |
| 2026-05-06 12:45 | 48.45791 | 2.73765 | 9265 ft | 274 kts | 272° |
| 2026-05-06 12:45 | 48.45955 | 2.68021 | 8892 ft | 274 kts | 273° |
| 2026-05-06 12:46 | 48.46040 | 2.65161 | 8709 ft | 273 kts | 274° |
| 2026-05-06 12:46 | 48.46134 | 2.62303 | 8523 ft | 273 kts | 275° |
| 2026-05-06 12:46 | 48.46265 | 2.59451 | 8344 ft | 273 kts | 276° |
| 2026-05-06 12:46 | 48.46411 | 2.56605 | 8162 ft | 273 kts | 276° |
| 2026-05-06 12:47 | 48.46560 | 2.53760 | 7976 ft | 272 kts | 276° |
| 2026-05-06 12:47 | 48.46706 | 2.50912 | 7804 ft | 273 kts | 276° |
| 2026-05-06 12:47 | 48.46850 | 2.48066 | 7625 ft | 273 kts | 276° |
| 2026-05-06 12:47 | 48.46992 | 2.45218 | 7445 ft | 272 kts | 276° |
| 2026-05-06 12:48 | 48.47130 | 2.42376 | 7270 ft | 272 kts | 276° |
| 2026-05-06 12:48 | 48.47266 | 2.39534 | 7101 ft | 272 kts | 276° |
| 2026-05-06 12:48 | 48.47403 | 2.36692 | 6922 ft | 272 kts | 277° |
| 2026-05-06 12:48 | 48.47538 | 2.33855 | 6747 ft | 272 kts | 277° |
| 2026-05-06 12:49 | 48.47669 | 2.31060 | 6578 ft | 270 kts | 277° |
| 2026-05-06 12:49 | 48.47799 | 2.28192 | 6399 ft | 271 kts | 277° |
| 2026-05-06 12:49 | 48.47927 | 2.25402 | 6223 ft | 268 kts | 277° |
| 2026-05-06 12:49 | 48.48051 | 2.22666 | 6037 ft | 256 kts | 277° |
| 2026-05-06 12:50 | 48.48167 | 2.20036 | 5854 ft | 246 kts | 277° |
| 2026-05-06 12:50 | 48.48278 | 2.17503 | 5672 ft | 239 kts | 278° |
| 2026-05-06 12:50 | 48.48388 | 2.15023 | 5491 ft | 236 kts | 278° |
| 2026-05-06 12:50 | 48.48507 | 2.12521 | 5309 ft | 235 kts | 280° |
| 2026-05-06 12:51 | 48.48990 | 2.10236 | 5130 ft | 227 kts | 304° |
| 2026-05-06 12:51 | 48.50049 | 2.08563 | 4982 ft | 217 kts | 329° |
| 2026-05-06 12:51 | 48.51395 | 2.07786 | 4851 ft | 208 kts | 353° |
| 2026-05-06 12:51 | 48.52833 | 2.07628 | 4727 ft | 206 kts | 357° |
| 2026-05-06 12:52 | 48.54263 | 2.07489 | 4594 ft | 205 kts | 356° |
| 2026-05-06 12:52 | 48.55687 | 2.07342 | 4466 ft | 205 kts | 357° |
| 2026-05-06 12:52 | 48.57114 | 2.07195 | 4337 ft | 206 kts | 356° |
| 2026-05-06 12:52 | 48.58545 | 2.07051 | 4208 ft | 206 kts | 356° |
| 2026-05-06 12:53 | 48.59969 | 2.06908 | 4089 ft | 205 kts | 356° |
| 2026-05-06 12:53 | 48.61393 | 2.06768 | 4003 ft | 204 kts | 357° |
| 2026-05-06 12:53 | 48.62784 | 2.07100 | 4002 ft | 207 kts | 25° |
| 2026-05-06 12:53 | 48.63819 | 2.08626 | 3867 ft | 216 kts | 55° |
| 2026-05-06 12:54 | 48.64530 | 2.10627 | 3556 ft | 213 kts | 59° |
| 2026-05-06 12:54 | 48.65203 | 2.12584 | 3232 ft | 206 kts | 59° |
| 2026-05-06 12:54 | 48.65869 | 2.14468 | 2949 ft | 201 kts | 58° |
| 2026-05-06 12:54 | 48.66522 | 2.16300 | 2682 ft | 195 kts | 59° |
| 2026-05-06 12:55 | 48.67162 | 2.18095 | 2417 ft | 192 kts | 59° |
| 2026-05-06 12:55 | 48.67791 | 2.19858 | 2150 ft | 188 kts | 58° |
| 2026-05-06 12:55 | 48.68401 | 2.21573 | 1901 ft | 183 kts | 59° |
| 2026-05-06 12:55 | 48.69000 | 2.23256 | 1663 ft | 179 kts | 58° |
| 2026-05-06 12:56 | 48.69584 | 2.24897 | 1385 ft | 174 kts | 58° |
| 2026-05-06 12:56 | 48.70132 | 2.26444 | 1157 ft | 159 kts | 58° |
| 2026-05-06 12:56 | 48.70643 | 2.27880 | 944 ft | 152 kts | 58° |
| 2026-05-06 12:56 | 48.71141 | 2.29283 | 753 ft | 147 kts | 57° |
| 2026-05-06 12:57 | 48.71610 | 2.30605 | 558 ft | 141 kts | 58° |
| 2026-05-06 12:57 | 48.72071 | 2.31898 | 387 ft | 139 kts | 58° |
| 2026-05-06 12:57 | 48.72492 | 2.33072 | 297 ft | 112 kts | 59° |
| 2026-05-06 12:57 | 48.72781 | 2.33878 | 300 ft | 63 kts | 64° |
| 2026-05-06 12:58 | 48.72953 | 2.34396 | 293 ft | 53 kts | 64° |
| 2026-05-06 12:58 | 48.73024 | 2.34834 | 296 ft | 37 kts | 82° |
| 2026-05-06 12:58 | 48.73041 | 2.35134 | 294 ft | 18 kts | 98° |
| 2026-05-06 12:58 | 48.72968 | 2.35290 | 295 ft | 19 kts | 150° |
| 2026-05-06 12:59 | 48.72871 | 2.35414 | 293 ft | 18 kts | 141° |
| 2026-05-06 12:59 | 48.72759 | 2.35496 | 296 ft | 18 kts | 125° |
| 2026-05-06 12:59 | 48.72780 | 2.35615 | 295 ft | 11 kts | 64° |
| 2026-05-06 12:59 | 48.72826 | 2.35693 | 293 ft | 5 kts | 40° |